sensor_id;sensor_type;location;lat;lon;timestamp;pressure;altitude;pressure_sealevel;temperature;humidity
54389;BME280;40975;50.390;8.640;2023-02-28T00:00:05;100224.56;;;-0.59;100.00
54389;BME280;40975;50.390;8.640;2023-02-28T00:02:36;100222.25;;;-0.69;100.00
54389;BME280;40975;50.390;8.640;2023-02-28T00:05:01;100225.69;;;-0.68;100.00
54389;BME280;40975;50.390;8.640;2023-02-28T00:07:29;100216.97;;;-0.67;100.00
54389;BME280;40975;50.390;8.640;2023-02-28T00:09:54;100219.50;;;-0.64;100.00
54389;BME280;40975;50.390;8.640;2023-02-28T00:12:20;100215.97;;;-0.63;100.00
54389;BME280;40975;50.390;8.640;2023-02-28T00:14:45;100220.47;;;-0.68;100.00
54389;BME280;40975;50.390;8.640;2023-02-28T00:17:10;100220.75;;;-0.76;100.00
54389;BME280;40975;50.390;8.640;2023-02-28T00:19:35;100213.69;;;-0.74;100.00
54389;BME280;40975;50.390;8.640;2023-02-28T00:22:01;100208.59;;;-0.77;100.00
54389;BME280;40975;50.390;8.640;2023-02-28T00:24:26;100216.41;;;-0.77;100.00
54389;BME280;40975;50.390;8.640;2023-02-28T00:26:51;100206.88;;;-0.78;100.00
54389;BME280;40975;50.390;8.640;2023-02-28T00:29:17;100199.09;;;-0.80;100.00
54389;BME280;40975;50.390;8.640;2023-02-28T00:31:43;100203.66;;;-0.86;100.00
54389;BME280;40975;50.390;8.640;2023-02-28T00:34:10;100205.41;;;-0.87;100.00
54389;BME280;40975;50.390;8.640;2023-02-28T00:36:35;100213.06;;;-0.81;100.00
54389;BME280;40975;50.390;8.640;2023-02-28T00:39:03;100206.22;;;-0.85;100.00
54389;BME280;40975;50.390;8.640;2023-02-28T00:41:28;100210.00;;;-0.95;100.00
54389;BME280;40975;50.390;8.640;2023-02-28T00:43:54;100214.47;;;-0.99;100.00
54389;BME280;40975;50.390;8.640;2023-02-28T00:46:19;100216.41;;;-1.05;100.00
54389;BME280;40975;50.390;8.640;2023-02-28T00:48:44;100214.25;;;-1.21;100.00
54389;BME280;40975;50.390;8.640;2023-02-28T00:51:10;100215.91;;;-1.18;100.00
54389;BME280;40975;50.390;8.640;2023-02-28T00:53:35;100211.09;;;-1.32;100.00
54389;BME280;40975;50.390;8.640;2023-02-28T00:56:00;100215.63;;;-1.39;100.00
54389;BME280;40975;50.390;8.640;2023-02-28T00:58:26;100221.88;;;-1.45;100.00
54389;BME280;40975;50.390;8.640;2023-02-28T01:00:52;100217.88;;;-1.57;100.00
54389;BME280;40975;50.390;8.640;2023-02-28T01:03:18;100222.31;;;-1.62;100.00
54389;BME280;40975;50.390;8.640;2023-02-28T01:05:45;100222.31;;;-1.62;100.00
54389;BME280;40975;50.390;8.640;2023-02-28T01:08:10;100214.91;;;-1.76;100.00
54389;BME280;40975;50.390;8.640;2023-02-28T01:10:36;100200.50;;;-1.89;100.00
54389;BME280;40975;50.390;8.640;2023-02-28T01:13:02;100216.81;;;-1.82;100.00
54389;BME280;40975;50.390;8.640;2023-02-28T01:15:27;100211.69;;;-1.85;100.00
54389;BME280;40975;50.390;8.640;2023-02-28T01:17:53;100217.06;;;-1.92;100.00
54389;BME280;40975;50.390;8.640;2023-02-28T01:20:18;100204.56;;;-2.12;100.00
54389;BME280;40975;50.390;8.640;2023-02-28T01:22:43;100217.34;;;-2.03;100.00
54389;BME280;40975;50.390;8.640;2023-02-28T01:25:09;100214.09;;;-2.12;100.00
54389;BME280;40975;50.390;8.640;2023-02-28T01:27:34;100223.69;;;-2.13;100.00
54389;BME280;40975;50.390;8.640;2023-02-28T01:30:01;100227.34;;;-2.20;100.00
54389;BME280;40975;50.390;8.640;2023-02-28T01:32:26;100221.44;;;-2.27;100.00
54389;BME280;40975;50.390;8.640;2023-02-28T01:34:51;100213.63;;;-2.27;100.00
54389;BME280;40975;50.390;8.640;2023-02-28T01:37:17;100213.53;;;-2.24;100.00
54389;BME280;40975;50.390;8.640;2023-02-28T01:39:43;100216.34;;;-2.31;100.00
54389;BME280;40975;50.390;8.640;2023-02-28T01:42:09;100212.28;;;-2.43;100.00
54389;BME280;40975;50.390;8.640;2023-02-28T01:44:58;100211.50;;;-2.47;100.00
54389;BME280;40975;50.390;8.640;2023-02-28T01:47:28;100210.88;;;-2.57;100.00
54389;BME280;40975;50.390;8.640;2023-02-28T01:49:56;100204.78;;;-2.56;100.00
54389;BME280;40975;50.390;8.640;2023-02-28T01:52:22;100203.81;;;-2.52;100.00
54389;BME280;40975;50.390;8.640;2023-02-28T01:54:54;100201.22;;;-2.52;100.00
54389;BME280;40975;50.390;8.640;2023-02-28T01:57:24;100209.13;;;-2.56;100.00
54389;BME280;40975;50.390;8.640;2023-02-28T02:00:00;100209.13;;;-2.56;100.00
54389;BME280;40975;50.390;8.640;2023-02-28T02:02:27;100197.94;;;-2.60;100.00
54389;BME280;40975;50.390;8.640;2023-02-28T02:05:00;100198.06;;;-2.64;100.00
54389;BME280;40975;50.390;8.640;2023-02-28T02:07:31;100198.00;;;-2.61;100.00
54389;BME280;40975;50.390;8.640;2023-02-28T02:10:21;100201.59;;;-2.69;100.00
54389;BME280;40975;50.390;8.640;2023-02-28T02:18:52;100178.19;;;-2.67;100.00
54389;BME280;40975;50.390;8.640;2023-02-28T02:21:46;100183.34;;;-2.66;100.00
54389;BME280;40975;50.390;8.640;2023-02-28T02:24:24;100183.56;;;-2.75;100.00
54389;BME280;40975;50.390;8.640;2023-02-28T02:27:17;100191.19;;;-2.67;100.00
54389;BME280;40975;50.390;8.640;2023-02-28T02:35:22;100182.84;;;-2.80;100.00
54389;BME280;40975;50.390;8.640;2023-02-28T02:41:04;100179.63;;;-2.91;100.00
54389;BME280;40975;50.390;8.640;2023-02-28T02:43:36;100178.81;;;-2.93;100.00
54389;BME280;40975;50.390;8.640;2023-02-28T02:46:04;100182.19;;;-2.90;100.00
54389;BME280;40975;50.390;8.640;2023-02-28T02:48:34;100176.97;;;-2.90;100.00
54389;BME280;40975;50.390;8.640;2023-02-28T02:51:06;100183.94;;;-2.92;100.00
54389;BME280;40975;50.390;8.640;2023-02-28T02:54:17;100176.97;;;-2.90;100.00
54389;BME280;40975;50.390;8.640;2023-02-28T02:56:47;100181.44;;;-2.95;100.00
54389;BME280;40975;50.390;8.640;2023-02-28T02:59:16;100186.66;;;-2.97;100.00
54389;BME280;40975;50.390;8.640;2023-02-28T03:01:54;100188.41;;;-2.97;100.00
54389;BME280;40975;50.390;8.640;2023-02-28T03:04:24;100187.53;;;-2.98;100.00
54389;BME280;40975;50.390;8.640;2023-02-28T03:06:51;100193.53;;;-2.94;100.00
54389;BME280;40975;50.390;8.640;2023-02-28T03:09:21;100186.44;;;-2.87;100.00
54389;BME280;40975;50.390;8.640;2023-02-28T03:11:48;100184.66;;;-2.85;100.00
54389;BME280;40975;50.390;8.640;2023-02-28T03:16:49;100193.47;;;-2.91;100.00
54389;BME280;40975;50.390;8.640;2023-02-28T03:30:49;100185.97;;;-3.05;100.00
54389;BME280;40975;50.390;8.640;2023-02-28T03:33:34;100175.84;;;-3.16;100.00
54389;BME280;40975;50.390;8.640;2023-02-28T03:36:05;100182.56;;;-3.07;100.00
54389;BME280;40975;50.390;8.640;2023-02-28T03:38:43;100186.22;;;-3.16;100.00
54389;BME280;40975;50.390;8.640;2023-02-28T03:41:35;100183.59;;;-3.14;100.00
54389;BME280;40975;50.390;8.640;2023-02-28T03:44:12;100181.91;;;-3.17;100.00
54389;BME280;40975;50.390;8.640;2023-02-28T03:46:45;100174.13;;;-3.18;100.00
54389;BME280;40975;50.390;8.640;2023-02-28T03:49:19;100184.63;;;-3.23;100.00
54389;BME280;40975;50.390;8.640;2023-02-28T03:51:46;100185.44;;;-3.21;100.00
54389;BME280;40975;50.390;8.640;2023-02-28T03:54:21;100181.16;;;-3.22;100.00
54389;BME280;40975;50.390;8.640;2023-02-28T03:57:07;100189.66;;;-3.15;100.00
54389;BME280;40975;50.390;8.640;2023-02-28T03:59:42;100193.09;;;-3.13;100.00
54389;BME280;40975;50.390;8.640;2023-02-28T04:02:08;100186.28;;;-3.19;100.00
54389;BME280;40975;50.390;8.640;2023-02-28T04:04:34;100196.63;;;-3.17;100.00
54389;BME280;40975;50.390;8.640;2023-02-28T04:07:05;100194.81;;;-3.14;100.00
54389;BME280;40975;50.390;8.640;2023-02-28T04:09:31;100175.38;;;-3.35;100.00
54389;BME280;40975;50.390;8.640;2023-02-28T04:11:56;100191.56;;;-3.23;100.00
54389;BME280;40975;50.390;8.640;2023-02-28T04:14:22;100190.84;;;-3.30;100.00
54389;BME280;40975;50.390;8.640;2023-02-28T04:16:48;100195.19;;;-3.31;100.00
54389;BME280;40975;50.390;8.640;2023-02-28T04:19:14;100200.44;;;-3.34;100.00
54389;BME280;40975;50.390;8.640;2023-02-28T04:21:43;100194.38;;;-3.34;100.00
54389;BME280;40975;50.390;8.640;2023-02-28T04:24:10;100195.31;;;-3.37;100.00
54389;BME280;40975;50.390;8.640;2023-02-28T04:26:40;100189.31;;;-3.40;100.00
54389;BME280;40975;50.390;8.640;2023-02-28T04:29:06;100196.28;;;-3.42;100.00
54389;BME280;40975;50.390;8.640;2023-02-28T04:31:32;100205.69;;;-3.37;100.00
54389;BME280;40975;50.390;8.640;2023-02-28T04:33:59;100201.38;;;-3.38;100.00
54389;BME280;40975;50.390;8.640;2023-02-28T04:36:25;100192.91;;;-3.46;100.00
54389;BME280;40975;50.390;8.640;2023-02-28T04:38:50;100192.16;;;-3.53;100.00
54389;BME280;40975;50.390;8.640;2023-02-28T04:41:16;100199.16;;;-3.56;100.00
54389;BME280;40975;50.390;8.640;2023-02-28T04:43:42;100200.03;;;-3.56;100.00
54389;BME280;40975;50.390;8.640;2023-02-28T04:46:07;100205.22;;;-3.56;100.00
54389;BME280;40975;50.390;8.640;2023-02-28T04:48:34;100201.81;;;-3.58;100.00
54389;BME280;40975;50.390;8.640;2023-02-28T04:51:12;100208.81;;;-3.63;100.00
54389;BME280;40975;50.390;8.640;2023-02-28T04:53:40;100204.72;;;-3.75;100.00
54389;BME280;40975;50.390;8.640;2023-02-28T04:56:07;100209.16;;;-3.80;100.00
54389;BME280;40975;50.390;8.640;2023-02-28T04:58:33;100199.75;;;-3.86;100.00
54389;BME280;40975;50.390;8.640;2023-02-28T05:01:03;100209.19;;;-3.83;100.00
54389;BME280;40975;50.390;8.640;2023-02-28T05:03:29;100208.41;;;-3.87;100.00
54389;BME280;40975;50.390;8.640;2023-02-28T05:05:55;100206.81;;;-3.96;100.00
54389;BME280;40975;50.390;8.640;2023-02-28T05:08:20;100208.47;;;-3.90;100.00
54389;BME280;40975;50.390;8.640;2023-02-28T05:10:45;100205.81;;;-3.88;100.00
54389;BME280;40975;50.390;8.640;2023-02-28T05:13:11;100217.09;;;-3.89;100.00
54389;BME280;40975;50.390;8.640;2023-02-28T05:15:37;100208.50;;;-3.93;100.00
54389;BME280;40975;50.390;8.640;2023-02-28T05:18:02;100222.31;;;-3.91;100.00
54389;BME280;40975;50.390;8.640;2023-02-28T05:20:28;100221.56;;;-3.98;100.00
54389;BME280;40975;50.390;8.640;2023-02-28T05:22:53;100223.50;;;-4.11;100.00
54389;BME280;40975;50.390;8.640;2023-02-28T05:25:21;100211.47;;;-4.13;100.00
54389;BME280;40975;50.390;8.640;2023-02-28T05:27:49;100212.09;;;-4.00;100.00
54389;BME280;40975;50.390;8.640;2023-02-28T05:30:15;100214.66;;;-3.97;100.00
54389;BME280;40975;50.390;8.640;2023-02-28T05:32:41;100220.41;;;-3.83;100.00
54389;BME280;40975;50.390;8.640;2023-02-28T05:35:09;100219.38;;;-3.72;100.00
54389;BME280;40975;50.390;8.640;2023-02-28T05:37:34;100219.25;;;-3.66;100.00
54389;BME280;40975;50.390;8.640;2023-02-28T05:40:00;100217.44;;;-3.61;100.00
54389;BME280;40975;50.390;8.640;2023-02-28T05:42:25;100217.44;;;-3.61;100.00
54389;BME280;40975;50.390;8.640;2023-02-28T05:44:50;100226.09;;;-3.61;100.00
54389;BME280;40975;50.390;8.640;2023-02-28T05:47:17;100224.19;;;-3.52;100.00
54389;BME280;40975;50.390;8.640;2023-02-28T05:49:42;100216.34;;;-3.51;100.00
54389;BME280;40975;50.390;8.640;2023-02-28T05:52:07;100231.88;;;-3.49;100.00
54389;BME280;40975;50.390;8.640;2023-02-28T05:54:33;100229.16;;;-3.41;100.00
54389;BME280;40975;50.390;8.640;2023-02-28T05:56:58;100226.53;;;-3.40;100.00
54389;BME280;40975;50.390;8.640;2023-02-28T05:59:24;100231.84;;;-3.46;100.00
54389;BME280;40975;50.390;8.640;2023-02-28T06:01:49;100222.25;;;-3.42;100.00
54389;BME280;40975;50.390;8.640;2023-02-28T06:04:17;100241.34;;;-3.45;100.00
54389;BME280;40975;50.390;8.640;2023-02-28T06:06:49;100235.91;;;-3.33;100.00
54389;BME280;40975;50.390;8.640;2023-02-28T06:09:15;100237.91;;;-3.47;100.00
54389;BME280;40975;50.390;8.640;2023-02-28T06:11:41;100231.09;;;-3.53;100.00
54389;BME280;40975;50.390;8.640;2023-02-28T06:14:09;100244.81;;;-3.45;100.00
54389;BME280;40975;50.390;8.640;2023-02-28T06:16:38;100231.84;;;-3.46;100.00
54389;BME280;40975;50.390;8.640;2023-02-28T06:19:04;100230.81;;;-3.37;100.00
54389;BME280;40975;50.390;8.640;2023-02-28T06:21:29;100230.47;;;-3.22;100.00
54389;BME280;40975;50.390;8.640;2023-02-28T06:23:56;100234.75;;;-3.18;100.00
54389;BME280;40975;50.390;8.640;2023-02-28T06:26:23;100237.19;;;-3.12;100.00
54389;BME280;40975;50.390;8.640;2023-02-28T06:28:48;100233.56;;;-3.04;100.00
54389;BME280;40975;50.390;8.640;2023-02-28T06:31:16;100235.97;;;-2.93;100.00
54389;BME280;40975;50.390;8.640;2023-02-28T06:33:43;100242.72;;;-2.86;100.00
54389;BME280;40975;50.390;8.640;2023-02-28T06:36:09;100229.50;;;-2.75;100.00
54389;BME280;40975;50.390;8.640;2023-02-28T06:38:35;100238.47;;;-2.51;100.00
54389;BME280;40975;50.390;8.640;2023-02-28T06:41:01;100229.03;;;-2.55;100.00
54389;BME280;40975;50.390;8.640;2023-02-28T06:43:32;100237.44;;;-2.44;100.00
54389;BME280;40975;50.390;8.640;2023-02-28T06:45:59;100244.19;;;-2.37;100.00
54389;BME280;40975;50.390;8.640;2023-02-28T06:48:26;100240.53;;;-2.29;100.00
54389;BME280;40975;50.390;8.640;2023-02-28T06:50:52;100235.16;;;-2.22;100.00
54389;BME280;40975;50.390;8.640;2023-02-28T06:53:17;100242.81;;;-2.15;100.00
54389;BME280;40975;50.390;8.640;2023-02-28T06:55:42;100246.97;;;-2.08;100.00
54389;BME280;40975;50.390;8.640;2023-02-28T06:58:08;100259.81;;;-2.02;100.00
54389;BME280;40975;50.390;8.640;2023-02-28T07:00:44;100256.25;;;-1.98;100.00
54389;BME280;40975;50.390;8.640;2023-02-28T07:03:11;100257.69;;;-1.86;100.00
54389;BME280;40975;50.390;8.640;2023-02-28T07:05:39;100266.13;;;-1.78;100.00
54389;BME280;40975;50.390;8.640;2023-02-28T07:08:05;100252.34;;;-1.80;100.00
54389;BME280;40975;50.390;8.640;2023-02-28T07:10:34;100260.63;;;-1.65;100.00
54389;BME280;40975;50.390;8.640;2023-02-28T07:13:03;100264.94;;;-1.64;100.00
54389;BME280;40975;50.390;8.640;2023-02-28T07:15:29;100261.22;;;-1.55;100.00
54389;BME280;40975;50.390;8.640;2023-02-28T07:17:54;100255.66;;;-1.43;100.00
54389;BME280;40975;50.390;8.640;2023-02-28T07:20:21;100269.50;;;-1.41;100.00
54389;BME280;40975;50.390;8.640;2023-02-28T07:22:48;100263.97;;;-1.29;100.00
54389;BME280;40975;50.390;8.640;2023-02-28T07:25:20;100268.16;;;-1.25;100.00
54389;BME280;40975;50.390;8.640;2023-02-28T07:27:46;100267.13;;;-1.17;100.00
54389;BME280;40975;50.390;8.640;2023-02-28T07:30:12;100266.03;;;-1.10;100.00
54389;BME280;40975;50.390;8.640;2023-02-28T07:32:37;100261.09;;;-0.89;100.00
54389;BME280;40975;50.390;8.640;2023-02-28T07:35:03;100266.38;;;-0.91;100.00
54389;BME280;40975;50.390;8.640;2023-02-28T07:37:28;100255.88;;;-0.89;100.00
54389;BME280;40975;50.390;8.640;2023-02-28T07:39:56;100266.88;;;-0.80;100.00
54389;BME280;40975;50.390;8.640;2023-02-28T07:42:22;100262.53;;;-0.79;100.00
54389;BME280;40975;50.390;8.640;2023-02-28T07:44:47;100264.31;;;-0.81;100.00
54389;BME280;40975;50.390;8.640;2023-02-28T07:47:13;100256.34;;;-0.75;100.00
54389;BME280;40975;50.390;8.640;2023-02-28T07:49:38;100248.38;;;-0.70;100.00
54389;BME280;40975;50.390;8.640;2023-02-28T07:52:07;100259.16;;;-0.54;100.00
54389;BME280;40975;50.390;8.640;2023-02-28T07:54:33;100256.53;;;-0.53;100.00
54389;BME280;40975;50.390;8.640;2023-02-28T07:56:58;100270.97;;;-0.42;99.56
54389;BME280;40975;50.390;8.640;2023-02-28T07:59:24;100262.88;;;-0.35;99.00
54389;BME280;40975;50.390;8.640;2023-02-28T08:01:49;100276.88;;;-0.09;98.00
54389;BME280;40975;50.390;8.640;2023-02-28T08:04:16;100272.59;;;0.15;96.91
54389;BME280;40975;50.390;8.640;2023-02-28T08:06:41;100275.78;;;0.24;96.15
54389;BME280;40975;50.390;8.640;2023-02-28T08:09:07;100270.06;;;0.38;94.17
54389;BME280;40975;50.390;8.640;2023-02-28T08:11:32;100271.59;;;0.69;90.64
54389;BME280;40975;50.390;8.640;2023-02-28T08:13:57;100267.31;;;0.91;87.79
54389;BME280;40975;50.390;8.640;2023-02-28T08:16:23;100265.28;;;1.22;84.89
54389;BME280;40975;50.390;8.640;2023-02-28T08:18:51;100260.19;;;2.68;80.35
54389;BME280;40975;50.390;8.640;2023-02-28T08:21:17;100249.91;;;3.40;74.37
54389;BME280;40975;50.390;8.640;2023-02-28T08:23:43;100251.69;;;3.58;70.53
54389;BME280;40975;50.390;8.640;2023-02-28T08:26:08;100244.47;;;3.25;68.29
54389;BME280;40975;50.390;8.640;2023-02-28T08:28:34;100252.53;;;2.43;69.71
54389;BME280;40975;50.390;8.640;2023-02-28T08:30:59;100253.75;;;1.72;70.58
54389;BME280;40975;50.390;8.640;2023-02-28T08:33:26;100261.28;;;1.35;74.53
54389;BME280;40975;50.390;8.640;2023-02-28T08:35:55;100260.13;;;1.20;75.23
54389;BME280;40975;50.390;8.640;2023-02-28T08:38:21;100255.91;;;1.16;76.51
54389;BME280;40975;50.390;8.640;2023-02-28T08:40:47;100252.69;;;1.10;77.42
54389;BME280;40975;50.390;8.640;2023-02-28T08:43:12;100254.38;;;1.11;72.76
54389;BME280;40975;50.390;8.640;2023-02-28T08:45:37;100258.00;;;1.75;75.05
54389;BME280;40975;50.390;8.640;2023-02-28T08:48:03;100253.31;;;2.66;69.00
54389;BME280;40975;50.390;8.640;2023-02-28T08:50:28;100245.53;;;4.12;64.25
54389;BME280;40975;50.390;8.640;2023-02-28T08:52:53;100243.72;;;4.48;60.43
54389;BME280;40975;50.390;8.640;2023-02-28T08:55:19;100241.94;;;4.82;58.72
54389;BME280;40975;50.390;8.640;2023-02-28T08:57:44;100236.75;;;5.76;55.76
54389;BME280;40975;50.390;8.640;2023-02-28T09:00:10;100243.63;;;6.10;53.77
54389;BME280;40975;50.390;8.640;2023-02-28T09:02:38;100248.16;;;5.45;54.62
54389;BME280;40975;50.390;8.640;2023-02-28T09:05:04;100247.16;;;5.16;55.32
54389;BME280;40975;50.390;8.640;2023-02-28T09:07:30;100247.50;;;7.07;51.37
54389;BME280;40975;50.390;8.640;2023-02-28T09:09:55;100244.97;;;8.79;47.55
54389;BME280;40975;50.390;8.640;2023-02-28T09:12:25;100236.91;;;8.94;45.06
54389;BME280;40975;50.390;8.640;2023-02-28T09:14:51;100241.88;;;9.36;44.21
54389;BME280;40975;50.390;8.640;2023-02-28T09:17:17;100240.69;;;7.99;44.71
54389;BME280;40975;50.390;8.640;2023-02-28T09:19:43;100241.66;;;8.24;44.17
54389;BME280;40975;50.390;8.640;2023-02-28T09:22:09;100241.41;;;7.19;46.64
54389;BME280;40975;50.390;8.640;2023-02-28T09:24:36;100247.06;;;5.33;49.59
54389;BME280;40975;50.390;8.640;2023-02-28T09:27:02;100252.91;;;4.90;52.52
54389;BME280;40975;50.390;8.640;2023-02-28T09:29:27;100245.72;;;4.09;54.18
54389;BME280;40975;50.390;8.640;2023-02-28T09:31:53;100251.25;;;4.03;55.19
54389;BME280;40975;50.390;8.640;2023-02-28T09:34:18;100250.53;;;4.17;55.81
54389;BME280;40975;50.390;8.640;2023-02-28T09:36:43;100250.81;;;4.63;53.97
54389;BME280;40975;50.390;8.640;2023-02-28T09:39:09;100238.13;;;6.29;49.96
54389;BME280;40975;50.390;8.640;2023-02-28T09:41:39;100233.13;;;8.33;45.71
54389;BME280;40975;50.390;8.640;2023-02-28T09:44:22;100219.19;;;9.69;41.04
54389;BME280;40975;50.390;8.640;2023-02-28T09:46:57;100219.59;;;11.36;38.47
54389;BME280;40975;50.390;8.640;2023-02-28T09:49:30;100213.09;;;12.57;36.23
54389;BME280;40975;50.390;8.640;2023-02-28T09:52:09;100221.09;;;10.38;36.76
54389;BME280;40975;50.390;8.640;2023-02-28T09:54:36;100217.56;;;11.72;35.15
54389;BME280;40975;50.390;8.640;2023-02-28T09:57:15;100221.59;;;11.88;35.15
54389;BME280;40975;50.390;8.640;2023-02-28T09:59:56;100221.44;;;11.13;34.60
54389;BME280;40975;50.390;8.640;2023-02-28T10:02:50;100216.34;;;12.40;34.39
54389;BME280;40975;50.390;8.640;2023-02-28T10:05:20;100217.22;;;11.65;34.65
54389;BME280;40975;50.390;8.640;2023-02-28T10:08:10;100219.03;;;12.19;34.33
54389;BME280;40975;50.390;8.640;2023-02-28T10:10:39;100223.06;;;11.48;34.53
54389;BME280;40975;50.390;8.640;2023-02-28T10:13:13;100227.41;;;12.35;34.26
54389;BME280;40975;50.390;8.640;2023-02-28T10:15:40;100223.16;;;11.58;33.78
54389;BME280;40975;50.390;8.640;2023-02-28T10:18:11;100230.66;;;10.63;35.73
54389;BME280;40975;50.390;8.640;2023-02-28T10:20:40;100225.72;;;12.13;35.65
54389;BME280;40975;50.390;8.640;2023-02-28T10:23:14;100223.38;;;11.98;35.36
54389;BME280;40975;50.390;8.640;2023-02-28T10:25:45;100225.72;;;10.70;34.96
54389;BME280;40975;50.390;8.640;2023-02-28T10:28:16;100227.66;;;9.12;35.75
54389;BME280;40975;50.390;8.640;2023-02-28T10:30:48;100239.53;;;10.04;36.09
54389;BME280;40975;50.390;8.640;2023-02-28T10:35:51;100239.34;;;10.18;35.57
54389;BME280;40975;50.390;8.640;2023-02-28T10:38:26;100238.81;;;8.92;36.72
54389;BME280;40975;50.390;8.640;2023-02-28T10:41:03;100232.59;;;11.07;36.55
54389;BME280;40975;50.390;8.640;2023-02-28T10:43:29;100227.94;;;11.31;35.07
54389;BME280;40975;50.390;8.640;2023-02-28T10:46:09;100227.34;;;12.25;34.28
54389;BME280;40975;50.390;8.640;2023-02-28T10:48:45;100226.69;;;12.12;34.21
54389;BME280;40975;50.390;8.640;2023-02-28T10:51:16;100227.75;;;11.00;33.96
54389;BME280;40975;50.390;8.640;2023-02-28T11:00:05;100228.50;;;11.79;35.44
54389;BME280;40975;50.390;8.640;2023-02-28T11:01:48;100224.25;;;9.10;35.29
54389;BME280;40975;50.390;8.640;2023-02-28T11:07:21;100227.38;;;9.04;38.31
54389;BME280;40975;50.390;8.640;2023-02-28T11:09:50;100224.78;;;9.15;37.34
54389;BME280;40975;50.390;8.640;2023-02-28T11:15:27;100237.06;;;7.87;39.13
54389;BME280;40975;50.390;8.640;2023-02-28T11:20:25;100234.31;;;7.61;39.62
54389;BME280;40975;50.390;8.640;2023-02-28T11:22:52;100224.75;;;7.46;39.59
54389;BME280;40975;50.390;8.640;2023-02-28T11:25:24;100227.81;;;7.80;40.29
54389;BME280;40975;50.390;8.640;2023-02-28T11:27:52;100229.28;;;6.30;41.13
54389;BME280;40975;50.390;8.640;2023-02-28T11:30:39;100223.59;;;6.07;42.87
54389;BME280;40975;50.390;8.640;2023-02-28T11:33:23;100220.78;;;6.25;43.25
54389;BME280;40975;50.390;8.640;2023-02-28T11:35:52;100200.16;;;7.04;42.33
54389;BME280;40975;50.390;8.640;2023-02-28T11:38:19;100216.94;;;7.17;42.55
54389;BME280;40975;50.390;8.640;2023-02-28T11:41:01;100218.00;;;6.85;43.18
54389;BME280;40975;50.390;8.640;2023-02-28T11:51:59;100209.25;;;6.42;42.74
54389;BME280;40975;50.390;8.640;2023-02-28T11:54:48;100212.19;;;5.76;45.67
54389;BME280;40975;50.390;8.640;2023-02-28T11:57:35;100223.72;;;5.43;47.51
54389;BME280;40975;50.390;8.640;2023-02-28T12:05:48;100216.13;;;5.53;46.59
54389;BME280;40975;50.390;8.640;2023-02-28T12:13:58;100220.66;;;4.87;48.16
54389;BME280;40975;50.390;8.640;2023-02-28T12:19:34;100206.09;;;6.06;47.01
54389;BME280;40975;50.390;8.640;2023-02-28T12:24:39;100205.38;;;6.33;45.47
54389;BME280;40975;50.390;8.640;2023-02-28T12:27:13;100195.53;;;5.75;45.40
54389;BME280;40975;50.390;8.640;2023-02-28T12:29:49;100199.38;;;5.70;45.89
54389;BME280;40975;50.390;8.640;2023-02-28T12:32:20;100205.38;;;5.41;45.85
54389;BME280;40975;50.390;8.640;2023-02-28T12:34:52;100200.13;;;5.72;44.97
54389;BME280;40975;50.390;8.640;2023-02-28T12:37:31;100204.75;;;7.14;48.08
54389;BME280;40975;50.390;8.640;2023-02-28T12:40:03;100201.66;;;7.08;46.75
54389;BME280;40975;50.390;8.640;2023-02-28T12:42:36;100213.75;;;6.97;47.87
54389;BME280;40975;50.390;8.640;2023-02-28T12:45:19;100210.97;;;6.57;47.30
54389;BME280;40975;50.390;8.640;2023-02-28T12:47:50;100199.72;;;6.68;48.32
54389;BME280;40975;50.390;8.640;2023-02-28T12:50:18;100207.38;;;7.29;49.88
54389;BME280;40975;50.390;8.640;2023-02-28T12:52:53;100211.94;;;7.12;48.78
54389;BME280;40975;50.390;8.640;2023-02-28T12:55:41;100206.28;;;7.04;48.77
54389;BME280;40975;50.390;8.640;2023-02-28T13:01:02;100205.88;;;6.68;50.76
54389;BME280;40975;50.390;8.640;2023-02-28T13:03:46;100210.75;;;6.46;51.54
54389;BME280;40975;50.390;8.640;2023-02-28T13:09:04;100210.50;;;7.21;51.47
54389;BME280;40975;50.390;8.640;2023-02-28T13:11:45;100192.34;;;6.88;49.35
54389;BME280;40975;50.390;8.640;2023-02-28T13:14:21;100193.50;;;6.69;49.23
54389;BME280;40975;50.390;8.640;2023-02-28T13:17:00;100193.22;;;6.88;49.28
54389;BME280;40975;50.390;8.640;2023-02-28T13:19:30;100192.75;;;7.23;49.81
54389;BME280;40975;50.390;8.640;2023-02-28T13:21:56;100181.56;;;6.63;50.98
54389;BME280;40975;50.390;8.640;2023-02-28T13:24:47;100186.81;;;6.78;51.15
54389;BME280;40975;50.390;8.640;2023-02-28T13:29:40;100184.28;;;5.88;50.53
54389;BME280;40975;50.390;8.640;2023-02-28T13:34:37;100187.50;;;5.63;51.94
54389;BME280;40975;50.390;8.640;2023-02-28T13:39:50;100183.22;;;6.21;51.38
54389;BME280;40975;50.390;8.640;2023-02-28T13:47:41;100185.59;;;6.40;51.88
54389;BME280;40975;50.390;8.640;2023-02-28T13:58:32;100178.63;;;6.25;51.82
54389;BME280;40975;50.390;8.640;2023-02-28T14:01:26;100173.56;;;6.21;50.76
54389;BME280;40975;50.390;8.640;2023-02-28T14:06:48;100169.56;;;6.14;50.88
54389;BME280;40975;50.390;8.640;2023-02-28T14:11:41;100168.75;;;5.83;52.39
54389;BME280;40975;50.390;8.640;2023-02-28T14:14:09;100161.25;;;5.91;52.30
54389;BME280;40975;50.390;8.640;2023-02-28T14:16:54;100165.69;;;5.75;50.45
54389;BME280;40975;50.390;8.640;2023-02-28T14:19:24;100153.88;;;5.82;50.08
54389;BME280;40975;50.390;8.640;2023-02-28T14:33:25;100157.72;;;5.76;51.86
54389;BME280;40975;50.390;8.640;2023-02-28T14:38:28;100151.38;;;5.65;51.17
54389;BME280;40975;50.390;8.640;2023-02-28T14:40:58;100148.09;;;5.45;51.67
54389;BME280;40975;50.390;8.640;2023-02-28T14:43:27;100147.41;;;5.57;51.84
54389;BME280;40975;50.390;8.640;2023-02-28T14:45:56;100151.63;;;5.60;51.99
54389;BME280;40975;50.390;8.640;2023-02-28T14:48:23;100143.59;;;5.47;50.88
54389;BME280;40975;50.390;8.640;2023-02-28T14:50:58;100148.81;;;5.49;49.91
54389;BME280;40975;50.390;8.640;2023-02-28T14:53:36;100152.63;;;5.73;51.21
54389;BME280;40975;50.390;8.640;2023-02-28T14:56:02;100135.78;;;5.76;51.13